createdAt,value
2019-02-18T00:01:40.765Z,18.87
2019-02-18T00:04:08.397Z,18.77
2019-02-18T00:06:35.970Z,19.37
2019-02-18T00:09:04.325Z,18.93
2019-02-18T00:11:31.982Z,15.33
2019-02-18T00:13:59.854Z,16.00
2019-02-18T00:16:27.421Z,17.97
2019-02-18T00:18:55.045Z,22.27
2019-02-18T00:21:22.639Z,20.40
2019-02-18T00:23:50.211Z,21.63
2019-02-18T00:26:17.820Z,30.37
2019-02-18T00:28:45.410Z,29.43
2019-02-18T00:31:12.991Z,26.80
2019-02-18T00:33:40.627Z,20.60
2019-02-18T00:36:08.205Z,21.40
2019-02-18T00:38:35.788Z,20.00
2019-02-18T00:41:03.415Z,22.87
2019-02-18T00:43:30.996Z,24.77
2019-02-18T00:45:58.579Z,19.70
2019-02-18T00:48:26.959Z,20.17
2019-02-18T00:50:55.095Z,19.77
2019-02-18T00:53:22.690Z,20.17
2019-02-18T00:55:50.340Z,19.33
2019-02-18T00:58:17.936Z,20.83
2019-02-18T01:00:45.516Z,26.20
2019-02-18T01:03:13.132Z,23.73
2019-02-18T01:05:40.712Z,25.70
2019-02-18T01:08:09.067Z,27.03
2019-02-18T01:10:37.018Z,27.23
2019-02-18T01:13:04.607Z,28.53
2019-02-18T01:15:32.202Z,36.80
2019-02-18T01:17:59.856Z,31.47
2019-02-18T01:20:28.203Z,29.37
2019-02-18T01:22:55.814Z,22.90
2019-02-18T01:25:23.396Z,19.67
2019-02-18T01:27:50.979Z,17.17
2019-02-18T01:30:18.562Z,20.93
2019-02-18T01:32:46.208Z,16.63
2019-02-18T01:35:13.825Z,16.97
2019-02-18T01:37:45.780Z,20.37
2019-02-18T01:40:08.996Z,18.77
2019-02-18T01:42:36.577Z,19.57
2019-02-18T01:45:04.155Z,16.60
2019-02-18T01:47:31.769Z,19.37
2019-02-18T01:49:59.354Z,17.20
2019-02-18T01:52:26.932Z,19.57
2019-02-18T01:54:55.309Z,22.13
2019-02-18T01:57:23.662Z,25.20
2019-02-18T01:59:51.245Z,23.30
2019-02-18T02:02:18.927Z,19.40
2019-02-18T02:04:46.468Z,19.93
2019-02-18T02:07:14.045Z,20.60
2019-02-18T02:09:42.434Z,19.57
2019-02-18T02:12:10.008Z,22.73
2019-02-18T02:14:37.602Z,19.47
2019-02-18T02:17:05.222Z,18.10
2019-02-18T02:19:32.811Z,16.73
2019-02-18T02:22:00.400Z,23.37
2019-02-18T02:24:28.038Z,16.97
2019-02-18T02:26:55.613Z,20.47
2019-02-18T02:29:23.191Z,20.23
2019-02-18T02:31:50.802Z,14.73
2019-02-18T02:34:18.427Z,24.20
2019-02-18T02:36:46.006Z,19.50
2019-02-18T02:39:13.591Z,19.20
2019-02-18T02:41:41.171Z,20.60
2019-02-18T02:44:08.755Z,18.53
2019-02-18T02:46:36.424Z,17.77
2019-02-18T02:49:04.015Z,22.40
2019-02-18T02:51:32.357Z,20.27
2019-02-18T02:53:59.985Z,20.03
2019-02-18T02:56:27.558Z,20.03
2019-02-18T02:58:55.166Z,18.57
2019-02-18T03:01:22.746Z,18.27
2019-02-18T03:03:51.091Z,19.63
2019-02-18T03:06:18.676Z,17.83
2019-02-18T03:08:47.078Z,19.33
2019-02-18T03:11:14.669Z,20.23
2019-02-18T03:13:42.244Z,18.37
2019-02-18T03:16:10.230Z,21.00
2019-02-18T03:18:37.810Z,20.10
2019-02-18T03:21:06.162Z,26.23
2019-02-18T03:23:33.777Z,19.57
2019-02-18T03:26:01.371Z,21.10
2019-02-18T03:28:34.864Z,22.07
2019-02-18T03:31:02.492Z,21.00
2019-02-18T03:33:39.114Z,18.03
2019-02-18T03:36:06.722Z,15.97
2019-02-18T03:38:35.071Z,21.47
2019-02-18T03:41:03.590Z,19.23
2019-02-18T03:43:31.039Z,24.00
2019-02-18T03:45:59.383Z,20.27
2019-02-18T03:48:26.970Z,21.43
2019-02-18T03:50:55.142Z,20.97
2019-02-18T03:53:22.719Z,20.83
2019-02-18T03:55:51.076Z,20.13
2019-02-18T03:58:18.695Z,21.20
2019-02-18T04:00:46.289Z,22.37
2019-02-18T04:03:13.869Z,22.07
2019-02-18T04:05:41.494Z,24.37
2019-02-18T04:08:09.075Z,21.97
2019-02-18T04:10:36.665Z,20.20
2019-02-18T04:13:07.192Z,28.70
2019-02-18T04:15:35.323Z,27.47
2019-02-18T04:18:02.906Z,24.33
2019-02-18T04:20:30.529Z,26.27
2019-02-18T04:22:58.113Z,20.20
2019-02-18T04:25:25.703Z,20.67
2019-02-18T04:27:53.339Z,19.03
2019-02-18T04:30:20.915Z,18.80
2019-02-18T04:32:48.491Z,20.03
2019-02-18T04:35:16.136Z,22.03
2019-02-18T04:37:43.712Z,19.50
2019-02-18T04:40:11.303Z,20.83
2019-02-18T04:42:38.921Z,20.60
2019-02-18T04:45:09.450Z,21.17
2019-02-18T04:47:37.025Z,26.23
2019-02-18T04:50:04.631Z,17.67
2019-02-18T04:52:32.219Z,23.03
2019-02-18T04:54:59.802Z,21.73
2019-02-18T04:57:27.857Z,18.83
2019-02-18T04:59:55.440Z,18.67
2019-02-18T05:02:23.014Z,18.97
2019-02-18T05:04:50.638Z,24.07
2019-02-18T05:07:18.211Z,21.77
2019-02-18T05:09:45.897Z,26.43
2019-02-18T05:12:15.554Z,22.07
2019-02-18T05:14:41.709Z,19.33
2019-02-18T05:17:09.307Z,20.77
2019-02-18T05:19:36.937Z,20.13
2019-02-18T05:22:04.515Z,20.07
2019-02-18T05:24:32.104Z,16.57
2019-02-18T05:27:00.494Z,21.77
2019-02-18T05:29:28.074Z,20.67
2019-02-18T05:31:55.664Z,19.83
2019-02-18T05:34:23.285Z,20.10
2019-02-18T05:36:50.863Z,18.13
2019-02-18T05:39:18.753Z,17.90
2019-02-18T05:41:46.101Z,20.57
2019-02-18T05:44:13.686Z,19.63
2019-02-18T05:46:41.264Z,18.80
2019-02-18T05:49:09.677Z,23.23
2019-02-18T05:51:37.283Z,18.70
2019-02-18T05:54:04.879Z,19.30
2019-02-18T05:56:32.506Z,22.20
2019-02-18T05:59:00.090Z,19.80
2019-02-18T06:01:27.736Z,18.13
2019-02-18T06:03:55.330Z,19.70
2019-02-18T06:06:23.680Z,24.83
2019-02-18T06:08:51.298Z,20.40
2019-02-18T06:11:18.912Z,19.73
2019-02-18T06:13:46.506Z,19.47
2019-02-18T06:16:14.891Z,18.57
2019-02-18T06:18:42.490Z,18.17
2019-02-18T06:21:10.089Z,24.17
2019-02-18T06:23:37.674Z,21.67
2019-02-18T06:26:05.313Z,21.90
2019-02-18T06:28:32.891Z,24.23
2019-02-18T06:31:01.245Z,28.23
2019-02-18T06:33:28.869Z,25.23
2019-02-18T06:35:56.474Z,29.27
2019-02-18T06:38:24.077Z,26.23
2019-02-18T06:40:51.700Z,27.67
2019-02-18T06:43:19.347Z,24.70
2019-02-18T06:45:52.832Z,25.83
2019-02-18T06:48:20.723Z,25.50
2019-02-18T06:50:48.313Z,23.33
2019-02-18T06:53:15.921Z,24.70
2019-02-18T06:55:44.127Z,27.25
2019-02-18T06:58:17.216Z,26.92
2019-02-18T07:00:44.798Z,23.37
2019-02-18T07:03:31.539Z,22.10
2019-02-18T07:06:04.908Z,18.87
2019-02-18T07:08:41.964Z,25.07
2019-02-18T07:11:09.560Z,26.37
2019-02-18T07:13:37.935Z,27.63
2019-02-18T07:16:06.675Z,22.03
2019-02-18T07:21:12.803Z,22.73
2019-02-18T07:23:40.351Z,21.23
2019-02-18T07:26:07.934Z,19.97
2019-02-18T07:28:36.339Z,19.83
2019-02-18T07:31:03.933Z,19.37
2019-02-18T07:33:31.518Z,21.53
2019-02-18T07:35:59.916Z,22.60
2019-02-18T07:38:27.635Z,19.70
2019-02-18T07:40:55.086Z,22.90
2019-02-18T07:43:23.267Z,19.33
2019-02-18T07:45:50.295Z,21.20
2019-02-18T07:48:17.876Z,23.07
2019-02-18T07:50:45.961Z,23.17
2019-02-18T07:53:13.545Z,22.47
2019-02-18T07:55:41.897Z,19.40
2019-02-18T07:58:09.523Z,22.50
2019-02-18T08:00:37.103Z,41.67
2019-02-18T08:03:04.681Z,34.77
2019-02-18T08:05:32.344Z,25.97
2019-02-18T08:07:59.928Z,22.53
2019-02-18T08:10:27.513Z,30.70
2019-02-18T08:12:55.136Z,28.87
2019-02-18T08:15:22.719Z,28.87
2019-02-18T08:17:51.069Z,21.53
2019-02-18T08:20:19.055Z,22.57
2019-02-18T08:22:46.644Z,21.70
2019-02-18T08:25:14.220Z,27.07
2019-02-18T08:27:41.860Z,24.83
2019-02-18T08:30:09.438Z,24.80
2019-02-18T08:32:37.033Z,22.33
2019-02-18T08:35:04.749Z,24.87
2019-02-18T08:37:32.328Z,26.77
2019-02-18T08:39:59.909Z,23.03
2019-02-18T08:42:27.549Z,26.43
2019-02-18T08:44:55.139Z,23.03
2019-02-18T08:47:22.722Z,24.57
2019-02-18T08:49:50.402Z,22.17
2019-02-18T08:52:17.985Z,29.40
2019-02-18T08:54:56.055Z,26.23
2019-02-18T08:57:14.836Z,23.73
2019-02-18T08:59:43.186Z,21.37
2019-02-18T09:02:10.759Z,21.90
2019-02-18T09:04:38.391Z,19.97
2019-02-18T09:07:05.968Z,19.40
2019-02-18T09:09:33.553Z,17.70
2019-02-18T09:12:01.723Z,23.73
2019-02-18T09:14:29.313Z,24.67
2019-02-18T09:16:56.895Z,21.37
2019-02-18T09:19:24.523Z,16.87
2019-02-18T09:21:59.312Z,17.93
2019-02-18T09:24:29.745Z,19.03
2019-02-18T09:26:57.323Z,16.97
2019-02-18T09:29:24.903Z,20.90
2019-02-18T09:31:52.963Z,18.60
2019-02-18T09:34:20.551Z,20.50
2019-02-18T09:36:48.895Z,21.70
2019-02-18T09:39:16.990Z,18.80
2019-02-18T09:41:44.565Z,21.33
2019-02-18T09:44:12.915Z,21.60
2019-02-18T09:46:40.563Z,18.10
2019-02-18T09:49:08.122Z,16.63
2019-02-18T09:51:35.702Z,18.83
2019-02-18T09:54:03.336Z,20.00
2019-02-18T09:56:30.930Z,18.93
2019-02-18T09:58:58.513Z,16.07
2019-02-18T10:01:26.937Z,15.77
2019-02-18T10:03:54.511Z,18.43
2019-02-18T10:06:22.100Z,19.83
2019-02-18T10:08:50.061Z,16.13
2019-02-18T10:11:17.676Z,17.93
2019-02-18T10:13:45.994Z,18.95
2019-02-18T10:16:13.616Z,18.63
2019-02-18T10:18:41.208Z,20.40
2019-02-18T10:21:08.804Z,21.73
2019-02-18T10:23:37.194Z,25.50
2019-02-18T10:26:05.553Z,24.70
2019-02-18T10:28:33.132Z,30.20
2019-02-18T10:31:01.550Z,22.23
2019-02-18T10:33:29.131Z,18.80
2019-02-18T10:35:56.863Z,16.67
2019-02-18T10:38:24.544Z,17.80
2019-02-18T10:40:52.131Z,22.77
2019-02-18T10:43:19.712Z,18.17
2019-02-18T10:45:48.329Z,19.92
2019-02-18T10:48:16.688Z,19.67
2019-02-18T10:50:45.046Z,19.60
2019-02-18T10:53:12.674Z,15.27
2019-02-18T10:55:40.256Z,17.00
2019-02-18T10:58:07.860Z,14.70
2019-02-18T11:00:37.053Z,14.37
2019-02-18T11:03:05.402Z,15.73
2019-02-18T11:05:32.985Z,12.47
2019-02-18T11:08:00.951Z,13.27
2019-02-18T11:10:28.542Z,12.23
2019-02-18T11:12:59.338Z,14.93
2019-02-18T11:15:26.978Z,14.77
2019-02-18T11:17:54.546Z,13.35
2019-02-18T11:20:22.127Z,12.90
2019-02-18T11:22:50.303Z,17.20
2019-02-18T11:25:17.887Z,11.17
2019-02-18T11:27:46.243Z,15.93
2019-02-18T11:30:13.946Z,13.07
2019-02-18T11:32:41.525Z,14.17
2019-02-18T11:35:09.118Z,11.37
2019-02-18T11:37:36.786Z,11.80
2019-02-18T11:40:04.375Z,15.27
2019-02-18T11:42:33.440Z,13.98
2019-02-18T11:45:01.143Z,10.60
2019-02-18T11:47:29.495Z,16.07
2019-02-18T11:49:57.113Z,15.48
2019-02-18T11:52:25.559Z,14.13
2019-02-18T11:54:54.179Z,12.17
2019-02-18T11:57:21.823Z,15.30
2019-02-18T11:59:49.480Z,14.23
2019-02-18T12:02:17.894Z,15.82
2019-02-18T12:04:45.486Z,12.63
2019-02-18T12:07:14.189Z,13.03
2019-02-18T12:09:41.768Z,19.87
2019-02-18T12:12:10.122Z,16.43
2019-02-18T12:14:37.753Z,12.87
2019-02-18T12:17:05.327Z,13.62
2019-02-18T12:19:32.911Z,12.20
2019-02-18T12:22:00.983Z,12.57
2019-02-18T12:24:28.566Z,16.57
2019-02-18T12:26:56.159Z,12.30
2019-02-18T12:29:26.626Z,13.90
2019-02-18T12:31:52.148Z,12.47
2019-02-18T12:34:19.728Z,11.90
2019-02-18T12:36:48.600Z,14.83
2019-02-18T12:39:16.189Z,13.43
2019-02-18T12:41:48.772Z,10.27
2019-02-18T12:44:11.402Z,14.13
2019-02-18T12:46:39.755Z,9.43
2019-02-18T12:49:07.340Z,10.83
2019-02-18T12:51:34.985Z,11.33
2019-02-18T12:54:05.085Z,13.77
2019-02-18T12:56:30.176Z,13.27
2019-02-18T12:58:57.797Z,11.77
2019-02-18T13:01:27.780Z,12.93
2019-02-18T13:03:53.734Z,15.57
2019-02-18T13:06:22.139Z,13.25
2019-02-18T13:08:49.727Z,10.90
2019-02-18T13:11:17.301Z,8.83
2019-02-18T13:13:46.130Z,12.77
2019-02-18T13:16:13.660Z,9.37
2019-02-18T13:18:41.233Z,8.17
2019-02-18T13:21:08.918Z,4.77
2019-02-18T13:23:37.270Z,7.40
2019-02-18T13:26:04.890Z,7.33
2019-02-18T13:28:33.331Z,5.70
2019-02-18T13:31:00.904Z,7.23
2019-02-18T13:33:29.266Z,5.27
2019-02-18T13:35:57.433Z,10.83
2019-02-18T13:38:25.011Z,7.45
2019-02-18T13:40:52.656Z,7.17
2019-02-18T13:43:21.149Z,8.37
2019-02-18T13:45:48.732Z,9.60
2019-02-18T13:48:17.095Z,8.57
2019-02-18T13:50:44.726Z,8.97
2019-02-18T13:53:12.306Z,5.77
2019-02-18T13:55:39.908Z,9.10
2019-02-18T13:58:07.567Z,10.40
2019-02-18T14:00:36.058Z,8.60
2019-02-18T14:03:03.694Z,6.17
2019-02-18T14:05:31.342Z,12.97
2019-02-18T14:07:58.931Z,12.13
2019-02-18T14:10:26.695Z,11.27
2019-02-18T14:12:54.153Z,9.37
2019-02-18T14:15:21.727Z,10.20
2019-02-18T14:17:50.575Z,5.22
2019-02-18T14:20:27.165Z,9.37
2019-02-18T14:22:54.747Z,5.57
2019-02-18T14:25:22.343Z,4.63
2019-02-18T14:27:50.023Z,6.20
2019-02-18T14:30:17.688Z,8.30
2019-02-18T14:32:45.277Z,5.63
2019-02-18T14:35:13.343Z,5.23
2019-02-18T14:37:40.980Z,5.10
2019-02-18T14:40:11.283Z,7.00
2019-02-18T14:42:39.222Z,8.00
2019-02-18T14:45:07.200Z,5.67
2019-02-18T14:47:34.722Z,5.47
2019-02-18T14:50:03.354Z,6.97
2019-02-18T14:52:30.873Z,5.07
2019-02-18T14:54:58.423Z,6.20
2019-02-18T14:57:26.117Z,7.10
2019-02-18T14:59:53.678Z,5.27
2019-02-18T15:02:21.269Z,6.60
2019-02-18T15:04:49.245Z,5.20
2019-02-18T15:07:16.830Z,10.63
2019-02-18T15:09:44.415Z,6.33
2019-02-18T15:12:13.126Z,8.93
2019-02-18T15:14:40.752Z,6.60
2019-02-18T15:17:08.355Z,9.30
2019-02-18T15:19:36.776Z,7.37
2019-02-18T15:22:05.094Z,6.47
2019-02-18T15:24:32.816Z,8.43
2019-02-18T15:27:01.142Z,6.70
2019-02-18T15:29:29.265Z,8.53
2019-02-18T15:31:56.827Z,8.70
2019-02-18T15:34:25.165Z,8.20
2019-02-18T15:36:52.573Z,6.60
2019-02-18T15:39:21.280Z,6.77
2019-02-18T15:41:48.947Z,8.40
2019-02-18T15:44:16.482Z,8.07
2019-02-18T15:46:44.096Z,5.67
2019-02-18T15:49:11.788Z,4.77
2019-02-18T15:51:39.366Z,7.93
2019-02-18T15:54:06.952Z,6.50
2019-02-18T15:56:35.064Z,8.03
2019-02-18T15:59:02.674Z,7.03
2019-02-18T16:01:30.259Z,6.47
2019-02-18T16:03:57.890Z,7.25
2019-02-18T16:06:25.490Z,6.63
2019-02-18T16:08:53.073Z,8.97
2019-02-18T16:11:21.482Z,8.03
2019-02-18T16:13:49.055Z,7.37
2019-02-18T16:16:16.645Z,9.10
2019-02-18T16:18:44.311Z,5.93
2019-02-18T16:21:12.051Z,7.57
2019-02-18T16:23:45.546Z,7.10
2019-02-18T16:26:13.155Z,7.20
2019-02-18T16:28:40.758Z,7.43
2019-02-18T16:31:16.945Z,6.63
2019-02-18T16:33:45.151Z,12.27
2019-02-18T16:36:12.731Z,9.10
2019-02-18T16:38:40.321Z,10.33
2019-02-18T16:41:08.317Z,10.30
2019-02-18T16:43:35.900Z,8.07
2019-02-18T16:46:03.484Z,6.37
2019-02-18T16:48:31.119Z,12.13
2019-02-18T16:50:58.693Z,6.37
2019-02-18T16:53:26.276Z,10.55
2019-02-18T16:55:54.739Z,8.13
2019-02-18T16:58:22.317Z,5.90
2019-02-18T17:00:57.327Z,11.10
2019-02-18T17:03:18.322Z,9.17
2019-02-18T17:05:45.911Z,6.60
2019-02-18T17:08:13.505Z,7.53
2019-02-18T17:10:41.191Z,9.87
2019-02-18T17:13:08.825Z,10.63
2019-02-18T17:15:36.452Z,17.43
2019-02-18T17:18:04.115Z,14.37
2019-02-18T17:20:31.691Z,17.97
2019-02-18T17:22:59.287Z,9.83
2019-02-18T17:25:26.916Z,14.90
2019-02-18T17:27:55.290Z,14.70
2019-02-18T17:30:22.886Z,10.00
2019-02-18T17:32:50.522Z,12.60
2019-02-18T17:35:18.885Z,19.37
2019-02-18T17:37:46.477Z,24.30
2019-02-18T17:40:14.109Z,18.62
2019-02-18T17:42:41.696Z,15.40
2019-02-18T17:45:12.086Z,11.70
2019-02-18T17:47:39.722Z,19.17
2019-02-18T17:50:07.484Z,22.97
2019-02-18T17:52:35.064Z,16.97
2019-02-18T17:55:02.742Z,16.57
2019-02-18T17:57:30.383Z,12.77
2019-02-18T17:59:58.686Z,18.27
2019-02-18T18:02:26.763Z,15.43
2019-02-18T18:04:54.347Z,11.97
2019-02-18T18:07:22.812Z,13.73
2019-02-18T18:09:50.411Z,16.80
2019-02-18T18:12:18.037Z,12.67
2019-02-18T18:14:45.577Z,12.90
2019-02-18T18:17:13.252Z,14.93
2019-02-18T18:19:43.549Z,13.00
2019-02-18T18:22:11.084Z,14.07
2019-02-18T18:24:38.702Z,12.13
2019-02-18T18:27:06.290Z,10.17
2019-02-18T18:29:34.645Z,10.50
2019-02-18T18:32:02.281Z,10.33
2019-02-18T18:34:29.896Z,13.05
2019-02-18T18:36:57.441Z,11.73
2019-02-18T18:39:25.811Z,13.07
2019-02-18T18:41:53.385Z,9.87
2019-02-18T18:44:21.736Z,10.13
2019-02-18T18:46:49.335Z,8.63
2019-02-18T18:49:17.206Z,11.67
2019-02-18T18:51:45.556Z,9.80
2019-02-18T18:54:13.189Z,12.77
2019-02-18T18:56:40.767Z,11.75
2019-02-18T18:59:08.727Z,13.53
2019-02-18T19:01:37.189Z,34.50
2019-02-18T19:04:05.975Z,14.40
2019-02-18T19:06:34.877Z,14.90
2019-02-18T19:09:01.555Z,15.13
2019-02-18T19:11:30.238Z,12.20
2019-02-18T19:13:56.731Z,13.87
2019-02-18T19:16:24.440Z,17.33
2019-02-18T19:18:51.983Z,10.77
2019-02-18T19:21:19.566Z,12.07
2019-02-18T19:23:47.210Z,16.40
2019-02-18T19:26:14.811Z,15.57
2019-02-18T19:28:43.178Z,15.27
2019-02-18T19:31:11.866Z,17.73
2019-02-18T19:33:39.490Z,19.27
2019-02-18T19:36:07.842Z,20.27
2019-02-18T19:38:35.911Z,21.37
2019-02-18T19:41:03.494Z,22.20
2019-02-18T19:43:31.072Z,20.83
2019-02-18T19:45:59.576Z,18.97
2019-02-18T19:48:27.233Z,16.00
2019-02-18T19:50:54.826Z,22.87
2019-02-18T19:53:22.790Z,17.97
2019-02-18T19:55:51.168Z,22.20
2019-02-18T19:58:18.754Z,13.33
2019-02-18T20:00:46.439Z,16.87
2019-02-18T20:03:14.033Z,11.70
2019-02-18T20:05:41.607Z,14.07
2019-02-18T20:08:09.524Z,19.17
2019-02-18T20:10:37.841Z,17.43
2019-02-18T20:13:05.411Z,12.37
2019-02-18T20:15:33.807Z,14.60
2019-02-18T20:18:01.392Z,15.20
2019-02-18T20:20:29.080Z,17.27
2019-02-18T20:22:57.867Z,20.17
2019-02-18T20:25:26.174Z,17.13
2019-02-18T20:27:53.771Z,14.50
2019-02-18T20:30:21.441Z,18.53
2019-02-18T20:32:49.006Z,12.00
2019-02-18T20:35:16.598Z,15.53
2019-02-18T20:37:44.705Z,17.27
2019-02-18T20:40:12.307Z,18.80
2019-02-18T20:42:39.886Z,21.17
2019-02-18T20:45:07.505Z,17.53
2019-02-18T20:47:35.095Z,16.47
2019-02-18T20:50:02.710Z,20.60
2019-02-18T20:52:30.350Z,17.17
2019-02-18T20:54:57.933Z,17.40
2019-02-18T20:57:26.198Z,19.07
2019-02-18T20:59:53.828Z,19.93
2019-02-18T21:02:24.317Z,18.13
2019-02-18T21:04:51.928Z,19.13
2019-02-18T21:07:19.520Z,20.20
2019-02-18T21:09:47.095Z,17.20
2019-02-18T21:12:19.952Z,13.53
2019-02-18T21:14:43.134Z,17.57
2019-02-18T21:17:10.753Z,14.50
2019-02-18T21:19:40.808Z,16.23
2019-02-18T21:22:08.507Z,17.20
2019-02-18T21:24:36.093Z,20.60
2019-02-18T21:27:03.671Z,18.13
2019-02-18T21:29:31.348Z,18.03
2019-02-18T21:31:59.025Z,15.70
2019-02-18T21:34:26.574Z,17.00
2019-02-18T21:36:54.191Z,15.10
2019-02-18T21:39:21.806Z,16.87
2019-02-18T21:41:49.399Z,12.97
2019-02-18T21:44:25.407Z,20.83
2019-02-18T21:46:47.668Z,24.23
2019-02-18T21:49:15.738Z,16.27
2019-02-18T21:51:43.372Z,14.57
2019-02-18T21:54:11.008Z,14.93
2019-02-18T21:56:39.353Z,16.87
2019-02-18T21:59:06.977Z,14.20
2019-02-18T22:01:34.554Z,13.30
2019-02-18T22:04:02.131Z,15.60
2019-02-18T22:06:29.740Z,19.73
2019-02-18T22:08:57.332Z,16.00
2019-02-18T22:11:24.937Z,18.53
2019-02-18T22:13:52.933Z,18.23
2019-02-18T22:16:20.488Z,14.80
2019-02-18T22:18:48.995Z,15.73
2019-02-18T22:21:16.633Z,17.37
2019-02-18T22:23:44.209Z,12.60
2019-02-18T22:26:11.867Z,15.17
2019-02-18T22:28:39.483Z,14.03
2019-02-18T22:31:07.067Z,15.57
2019-02-18T22:33:34.663Z,11.93
2019-02-18T22:36:02.287Z,12.37
2019-02-18T22:38:29.873Z,17.83
2019-02-18T22:40:57.452Z,13.83
2019-02-18T22:43:25.070Z,16.00
2019-02-18T22:45:52.671Z,12.90
2019-02-18T22:48:20.249Z,13.53
2019-02-18T22:50:47.874Z,15.10
2019-02-18T22:53:16.225Z,17.23
2019-02-18T22:55:43.807Z,15.57
2019-02-18T22:58:12.493Z,14.30
2019-02-18T23:00:55.082Z,12.70
2019-02-18T23:03:22.711Z,14.57
2019-02-18T23:05:50.294Z,15.10
2019-02-18T23:08:17.873Z,13.37
2019-02-18T23:10:45.487Z,11.40
2019-02-18T23:13:13.072Z,15.67
2019-02-18T23:15:40.664Z,18.47
2019-02-18T23:18:08.734Z,15.57
2019-02-18T23:20:36.322Z,16.60
2019-02-18T23:23:04.677Z,16.30
2019-02-18T23:25:32.291Z,15.07
2019-02-18T23:27:59.872Z,17.07
2019-02-18T23:30:27.521Z,18.80
2019-02-18T23:32:55.138Z,16.33
2019-02-18T23:35:22.718Z,15.67
2019-02-18T23:37:51.065Z,15.07
2019-02-18T23:40:18.687Z,15.93
2019-02-18T23:42:46.269Z,15.43
2019-02-18T23:45:13.864Z,12.67
2019-02-18T23:47:41.490Z,18.13
2019-02-18T23:50:09.070Z,16.40
2019-02-18T23:52:36.654Z,11.30
2019-02-18T23:55:05.036Z,13.23
2019-02-18T23:57:33.380Z,13.90
